sensor_id;sensor_type;location;lat;lon;timestamp;P1;durP1;ratioP1;P2;durP2;ratioP2
85133;SDS011;75495;42.690;23.354;2024-01-06T00:01:20;60.95;;;32.50;;
85133;SDS011;75495;42.690;23.354;2024-01-06T00:03:46;59.78;;;30.27;;
85133;SDS011;75495;42.690;23.354;2024-01-06T00:06:12;64.13;;;30.45;;
85133;SDS011;75495;42.690;23.354;2024-01-06T00:08:38;57.97;;;30.85;;
85133;SDS011;75495;42.690;23.354;2024-01-06T00:11:04;59.08;;;29.45;;
85133;SDS011;75495;42.690;23.354;2024-01-06T00:13:29;55.63;;;27.02;;
85133;SDS011;75495;42.690;23.354;2024-01-06T00:15:55;58.22;;;29.33;;
85133;SDS011;75495;42.690;23.354;2024-01-06T00:18:20;54.63;;;28.42;;
85133;SDS011;75495;42.690;23.354;2024-01-06T00:20:45;53.72;;;30.10;;
85133;SDS011;75495;42.690;23.354;2024-01-06T00:23:11;55.47;;;28.80;;
85133;SDS011;75495;42.690;23.354;2024-01-06T00:25:36;58.55;;;28.35;;
85133;SDS011;75495;42.690;23.354;2024-01-06T00:28:02;57.13;;;29.45;;
85133;SDS011;75495;42.690;23.354;2024-01-06T00:30:27;56.13;;;29.42;;
85133;SDS011;75495;42.690;23.354;2024-01-06T00:32:53;63.45;;;31.55;;
85133;SDS011;75495;42.690;23.354;2024-01-06T00:35:18;61.28;;;34.60;;
85133;SDS011;75495;42.690;23.354;2024-01-06T00:37:44;71.38;;;32.67;;
85133;SDS011;75495;42.690;23.354;2024-01-06T00:40:09;61.13;;;33.55;;
85133;SDS011;75495;42.690;23.354;2024-01-06T00:42:35;69.85;;;35.03;;
85133;SDS011;75495;42.690;23.354;2024-01-06T00:45:01;61.10;;;33.05;;
85133;SDS011;75495;42.690;23.354;2024-01-06T00:47:26;75.10;;;36.78;;
85133;SDS011;75495;42.690;23.354;2024-01-06T00:49:52;79.82;;;37.85;;
85133;SDS011;75495;42.690;23.354;2024-01-06T00:52:17;75.43;;;38.85;;
85133;SDS011;75495;42.690;23.354;2024-01-06T00:54:43;72.15;;;37.80;;
85133;SDS011;75495;42.690;23.354;2024-01-06T00:57:08;69.20;;;37.53;;
85133;SDS011;75495;42.690;23.354;2024-01-06T00:59:33;76.45;;;36.50;;
85133;SDS011;75495;42.690;23.354;2024-01-06T01:01:59;78.93;;;38.38;;
85133;SDS011;75495;42.690;23.354;2024-01-06T01:04:24;70.63;;;37.78;;
85133;SDS011;75495;42.690;23.354;2024-01-06T01:06:50;79.45;;;37.58;;
85133;SDS011;75495;42.690;23.354;2024-01-06T01:09:15;67.40;;;35.55;;
85133;SDS011;75495;42.690;23.354;2024-01-06T01:11:41;71.13;;;35.33;;
85133;SDS011;75495;42.690;23.354;2024-01-06T01:14:07;66.55;;;35.90;;
85133;SDS011;75495;42.690;23.354;2024-01-06T01:16:32;64.00;;;33.10;;
85133;SDS011;75495;42.690;23.354;2024-01-06T01:18:58;62.28;;;33.95;;
85133;SDS011;75495;42.690;23.354;2024-01-06T01:21:23;62.92;;;32.63;;
85133;SDS011;75495;42.690;23.354;2024-01-06T01:23:49;65.40;;;31.10;;
85133;SDS011;75495;42.690;23.354;2024-01-06T01:26:15;66.45;;;34.90;;
85133;SDS011;75495;42.690;23.354;2024-01-06T01:28:40;66.40;;;32.05;;
85133;SDS011;75495;42.690;23.354;2024-01-06T01:31:06;59.08;;;32.45;;
85133;SDS011;75495;42.690;23.354;2024-01-06T01:33:31;60.45;;;33.22;;
85133;SDS011;75495;42.690;23.354;2024-01-06T01:35:57;53.25;;;30.23;;
85133;SDS011;75495;42.690;23.354;2024-01-06T01:38:22;67.45;;;34.65;;
85133;SDS011;75495;42.690;23.354;2024-01-06T01:40:48;64.28;;;33.65;;
85133;SDS011;75495;42.690;23.354;2024-01-06T01:43:17;63.00;;;32.30;;
85133;SDS011;75495;42.690;23.354;2024-01-06T01:45:48;60.35;;;32.47;;
85133;SDS011;75495;42.690;23.354;2024-01-06T01:48:17;71.13;;;34.58;;
85133;SDS011;75495;42.690;23.354;2024-01-06T01:50:43;63.38;;;33.25;;
85133;SDS011;75495;42.690;23.354;2024-01-06T01:53:09;59.53;;;28.88;;
85133;SDS011;75495;42.690;23.354;2024-01-06T01:55:35;48.75;;;27.00;;
85133;SDS011;75495;42.690;23.354;2024-01-06T01:58:00;57.28;;;27.45;;
85133;SDS011;75495;42.690;23.354;2024-01-06T02:00:28;49.08;;;27.27;;
85133;SDS011;75495;42.690;23.354;2024-01-06T02:02:53;55.70;;;29.90;;
85133;SDS011;75495;42.690;23.354;2024-01-06T02:05:19;38.03;;;19.70;;
85133;SDS011;75495;42.690;23.354;2024-01-06T02:07:44;29.80;;;16.63;;
85133;SDS011;75495;42.690;23.354;2024-01-06T02:10:10;25.45;;;14.50;;
85133;SDS011;75495;42.690;23.354;2024-01-06T02:12:35;28.05;;;15.38;;
85133;SDS011;75495;42.690;23.354;2024-01-06T02:15:01;27.80;;;16.50;;
85133;SDS011;75495;42.690;23.354;2024-01-06T02:17:26;33.05;;;15.68;;
85133;SDS011;75495;42.690;23.354;2024-01-06T02:19:52;28.33;;;15.25;;
85133;SDS011;75495;42.690;23.354;2024-01-06T02:22:17;30.50;;;17.65;;
85133;SDS011;75495;42.690;23.354;2024-01-06T02:24:43;34.13;;;17.85;;
85133;SDS011;75495;42.690;23.354;2024-01-06T02:27:08;31.08;;;17.52;;
85133;SDS011;75495;42.690;23.354;2024-01-06T02:29:34;30.88;;;17.65;;
85133;SDS011;75495;42.690;23.354;2024-01-06T02:32:00;30.58;;;17.38;;
85133;SDS011;75495;42.690;23.354;2024-01-06T02:34:25;33.78;;;17.83;;
85133;SDS011;75495;42.690;23.354;2024-01-06T02:36:51;37.25;;;20.05;;
85133;SDS011;75495;42.690;23.354;2024-01-06T02:39:16;46.05;;;23.17;;
85133;SDS011;75495;42.690;23.354;2024-01-06T02:41:41;47.10;;;22.13;;
85133;SDS011;75495;42.690;23.354;2024-01-06T02:44:07;41.40;;;20.60;;
85133;SDS011;75495;42.690;23.354;2024-01-06T02:46:33;41.88;;;21.50;;
85133;SDS011;75495;42.690;23.354;2024-01-06T02:48:59;27.98;;;15.13;;
85133;SDS011;75495;42.690;23.354;2024-01-06T02:51:24;29.52;;;15.80;;
85133;SDS011;75495;42.690;23.354;2024-01-06T02:53:50;33.22;;;17.35;;
85133;SDS011;75495;42.690;23.354;2024-01-06T02:56:15;24.35;;;15.27;;
85133;SDS011;75495;42.690;23.354;2024-01-06T02:58:41;31.13;;;17.70;;
85133;SDS011;75495;42.690;23.354;2024-01-06T03:01:06;32.30;;;17.17;;
85133;SDS011;75495;42.690;23.354;2024-01-06T03:03:32;31.55;;;14.95;;
85133;SDS011;75495;42.690;23.354;2024-01-06T03:05:57;24.15;;;13.00;;
85133;SDS011;75495;42.690;23.354;2024-01-06T03:08:23;27.83;;;13.18;;
85133;SDS011;75495;42.690;23.354;2024-01-06T03:10:49;26.75;;;12.95;;
85133;SDS011;75495;42.690;23.354;2024-01-06T03:13:14;25.63;;;12.55;;
85133;SDS011;75495;42.690;23.354;2024-01-06T03:15:40;20.30;;;12.55;;
85133;SDS011;75495;42.690;23.354;2024-01-06T03:18:05;23.35;;;12.50;;
85133;SDS011;75495;42.690;23.354;2024-01-06T03:20:31;25.42;;;14.02;;
85133;SDS011;75495;42.690;23.354;2024-01-06T03:22:56;21.02;;;11.60;;
85133;SDS011;75495;42.690;23.354;2024-01-06T03:25:22;32.88;;;17.17;;
85133;SDS011;75495;42.690;23.354;2024-01-06T03:27:47;39.22;;;21.45;;
85133;SDS011;75495;42.690;23.354;2024-01-06T03:30:13;39.60;;;20.08;;
85133;SDS011;75495;42.690;23.354;2024-01-06T03:32:38;38.45;;;19.45;;
85133;SDS011;75495;42.690;23.354;2024-01-06T03:35:05;32.45;;;17.77;;
85133;SDS011;75495;42.690;23.354;2024-01-06T03:37:31;18.45;;;10.10;;
85133;SDS011;75495;42.690;23.354;2024-01-06T03:39:57;19.30;;;10.32;;
85133;SDS011;75495;42.690;23.354;2024-01-06T03:42:23;18.67;;;11.13;;
85133;SDS011;75495;42.690;23.354;2024-01-06T03:44:49;15.15;;;9.07;;
85133;SDS011;75495;42.690;23.354;2024-01-06T03:47:15;12.13;;;8.23;;
85133;SDS011;75495;42.690;23.354;2024-01-06T03:49:40;17.90;;;8.77;;
85133;SDS011;75495;42.690;23.354;2024-01-06T03:52:06;21.25;;;11.25;;
85133;SDS011;75495;42.690;23.354;2024-01-06T03:54:31;27.13;;;16.25;;
85133;SDS011;75495;42.690;23.354;2024-01-06T03:56:58;34.15;;;18.75;;
85133;SDS011;75495;42.690;23.354;2024-01-06T03:59:24;43.13;;;21.00;;
85133;SDS011;75495;42.690;23.354;2024-01-06T04:01:49;68.38;;;28.25;;
85133;SDS011;75495;42.690;23.354;2024-01-06T04:04:15;40.92;;;20.83;;
85133;SDS011;75495;42.690;23.354;2024-01-06T04:06:40;34.00;;;19.65;;
85133;SDS011;75495;42.690;23.354;2024-01-06T04:09:06;45.15;;;24.15;;
85133;SDS011;75495;42.690;23.354;2024-01-06T04:11:31;38.17;;;21.88;;
85133;SDS011;75495;42.690;23.354;2024-01-06T04:13:57;42.60;;;23.00;;
85133;SDS011;75495;42.690;23.354;2024-01-06T04:16:22;39.92;;;20.42;;
85133;SDS011;75495;42.690;23.354;2024-01-06T04:18:47;27.23;;;14.90;;
85133;SDS011;75495;42.690;23.354;2024-01-06T04:21:13;26.83;;;14.63;;
85133;SDS011;75495;42.690;23.354;2024-01-06T04:23:38;29.45;;;17.23;;
85133;SDS011;75495;42.690;23.354;2024-01-06T04:26:04;32.72;;;15.98;;
85133;SDS011;75495;42.690;23.354;2024-01-06T04:28:31;30.25;;;15.85;;
85133;SDS011;75495;42.690;23.354;2024-01-06T04:30:57;25.15;;;14.18;;
85133;SDS011;75495;42.690;23.354;2024-01-06T04:33:22;25.95;;;14.13;;
85133;SDS011;75495;42.690;23.354;2024-01-06T04:35:48;21.65;;;11.27;;
85133;SDS011;75495;42.690;23.354;2024-01-06T04:38:15;16.38;;;9.88;;
85133;SDS011;75495;42.690;23.354;2024-01-06T04:40:40;18.75;;;10.23;;
85133;SDS011;75495;42.690;23.354;2024-01-06T04:43:06;22.65;;;12.40;;
85133;SDS011;75495;42.690;23.354;2024-01-06T04:45:32;18.80;;;10.38;;
85133;SDS011;75495;42.690;23.354;2024-01-06T04:47:57;17.05;;;9.57;;
85133;SDS011;75495;42.690;23.354;2024-01-06T04:50:23;12.30;;;8.35;;
85133;SDS011;75495;42.690;23.354;2024-01-06T04:52:48;20.52;;;11.77;;
85133;SDS011;75495;42.690;23.354;2024-01-06T04:55:14;21.75;;;10.82;;
85133;SDS011;75495;42.690;23.354;2024-01-06T04:57:40;34.90;;;19.13;;
85133;SDS011;75495;42.690;23.354;2024-01-06T05:00:05;44.92;;;23.10;;
85133;SDS011;75495;42.690;23.354;2024-01-06T05:02:31;23.55;;;13.40;;
85133;SDS011;75495;42.690;23.354;2024-01-06T05:04:57;44.38;;;24.33;;
85133;SDS011;75495;42.690;23.354;2024-01-06T05:07:22;39.83;;;22.42;;
85133;SDS011;75495;42.690;23.354;2024-01-06T05:09:48;55.80;;;30.08;;
85133;SDS011;75495;42.690;23.354;2024-01-06T05:12:13;51.90;;;26.52;;
85133;SDS011;75495;42.690;23.354;2024-01-06T05:14:39;23.52;;;13.18;;
85133;SDS011;75495;42.690;23.354;2024-01-06T05:17:04;10.23;;;6.45;;
85133;SDS011;75495;42.690;23.354;2024-01-06T05:19:30;15.77;;;8.60;;
85133;SDS011;75495;42.690;23.354;2024-01-06T05:21:56;45.67;;;22.27;;
85133;SDS011;75495;42.690;23.354;2024-01-06T05:24:22;56.78;;;28.95;;
85133;SDS011;75495;42.690;23.354;2024-01-06T05:26:48;55.95;;;29.98;;
85133;SDS011;75495;42.690;23.354;2024-01-06T05:29:13;12.68;;;8.35;;
85133;SDS011;75495;42.690;23.354;2024-01-06T05:31:39;12.75;;;7.85;;
85133;SDS011;75495;42.690;23.354;2024-01-06T05:34:04;11.02;;;5.80;;
85133;SDS011;75495;42.690;23.354;2024-01-06T05:36:30;10.52;;;5.47;;
85133;SDS011;75495;42.690;23.354;2024-01-06T05:38:56;8.05;;;4.45;;
85133;SDS011;75495;42.690;23.354;2024-01-06T05:41:21;9.88;;;5.95;;
85133;SDS011;75495;42.690;23.354;2024-01-06T05:43:46;9.15;;;4.78;;
85133;SDS011;75495;42.690;23.354;2024-01-06T05:46:19;9.10;;;5.35;;
85133;SDS011;75495;42.690;23.354;2024-01-06T05:48:49;8.38;;;5.10;;
85133;SDS011;75495;42.690;23.354;2024-01-06T05:51:14;10.75;;;4.97;;
85133;SDS011;75495;42.690;23.354;2024-01-06T05:53:40;7.20;;;3.25;;
85133;SDS011;75495;42.690;23.354;2024-01-06T05:56:07;3.97;;;2.70;;
85133;SDS011;75495;42.690;23.354;2024-01-06T05:58:34;10.05;;;6.85;;
85133;SDS011;75495;42.690;23.354;2024-01-06T06:00:59;7.38;;;4.75;;
85133;SDS011;75495;42.690;23.354;2024-01-06T06:03:25;5.82;;;2.63;;
85133;SDS011;75495;42.690;23.354;2024-01-06T06:05:50;8.95;;;4.50;;
85133;SDS011;75495;42.690;23.354;2024-01-06T06:08:16;10.93;;;5.45;;
85133;SDS011;75495;42.690;23.354;2024-01-06T06:10:41;7.43;;;5.13;;
85133;SDS011;75495;42.690;23.354;2024-01-06T06:13:24;9.27;;;3.42;;
85133;SDS011;75495;42.690;23.354;2024-01-06T06:15:50;6.10;;;4.55;;
85133;SDS011;75495;42.690;23.354;2024-01-06T06:18:16;10.52;;;4.70;;
85133;SDS011;75495;42.690;23.354;2024-01-06T06:20:41;6.38;;;4.55;;
85133;SDS011;75495;42.690;23.354;2024-01-06T06:23:09;9.20;;;6.78;;
85133;SDS011;75495;42.690;23.354;2024-01-06T06:25:36;6.03;;;3.50;;
85133;SDS011;75495;42.690;23.354;2024-01-06T06:28:05;7.80;;;5.55;;
85133;SDS011;75495;42.690;23.354;2024-01-06T06:30:31;9.65;;;5.03;;
85133;SDS011;75495;42.690;23.354;2024-01-06T06:32:57;5.45;;;4.07;;
85133;SDS011;75495;42.690;23.354;2024-01-06T06:35:25;6.88;;;4.68;;
85133;SDS011;75495;42.690;23.354;2024-01-06T06:37:51;5.00;;;3.22;;
85133;SDS011;75495;42.690;23.354;2024-01-06T06:40:16;15.20;;;10.02;;
85133;SDS011;75495;42.690;23.354;2024-01-06T06:42:42;11.35;;;7.85;;
85133;SDS011;75495;42.690;23.354;2024-01-06T06:45:08;8.07;;;7.20;;
85133;SDS011;75495;42.690;23.354;2024-01-06T06:47:36;9.02;;;5.18;;
85133;SDS011;75495;42.690;23.354;2024-01-06T06:50:02;8.15;;;4.50;;
85133;SDS011;75495;42.690;23.354;2024-01-06T06:52:27;7.72;;;4.15;;
85133;SDS011;75495;42.690;23.354;2024-01-06T06:54:53;6.93;;;4.32;;
85133;SDS011;75495;42.690;23.354;2024-01-06T06:57:18;6.65;;;4.28;;
85133;SDS011;75495;42.690;23.354;2024-01-06T06:59:44;8.63;;;5.18;;
85133;SDS011;75495;42.690;23.354;2024-01-06T07:02:10;7.55;;;5.18;;
85133;SDS011;75495;42.690;23.354;2024-01-06T07:04:35;14.18;;;5.57;;
85133;SDS011;75495;42.690;23.354;2024-01-06T07:07:03;11.75;;;5.97;;
85133;SDS011;75495;42.690;23.354;2024-01-06T07:09:29;10.20;;;5.50;;
85133;SDS011;75495;42.690;23.354;2024-01-06T07:11:55;7.22;;;5.32;;
85133;SDS011;75495;42.690;23.354;2024-01-06T07:14:20;8.68;;;6.07;;
85133;SDS011;75495;42.690;23.354;2024-01-06T07:16:47;9.30;;;5.80;;
85133;SDS011;75495;42.690;23.354;2024-01-06T07:19:14;14.30;;;6.72;;
85133;SDS011;75495;42.690;23.354;2024-01-06T07:21:39;7.32;;;4.93;;
85133;SDS011;75495;42.690;23.354;2024-01-06T07:24:05;13.43;;;5.93;;
85133;SDS011;75495;42.690;23.354;2024-01-06T07:26:31;10.02;;;5.18;;
85133;SDS011;75495;42.690;23.354;2024-01-06T07:28:56;8.77;;;4.82;;
85133;SDS011;75495;42.690;23.354;2024-01-06T07:31:22;8.43;;;5.72;;
85133;SDS011;75495;42.690;23.354;2024-01-06T07:33:47;14.95;;;7.03;;
85133;SDS011;75495;42.690;23.354;2024-01-06T07:36:13;10.52;;;7.00;;
85133;SDS011;75495;42.690;23.354;2024-01-06T07:38:38;12.68;;;6.55;;
85133;SDS011;75495;42.690;23.354;2024-01-06T07:41:04;14.40;;;6.80;;
85133;SDS011;75495;42.690;23.354;2024-01-06T07:43:30;19.30;;;7.05;;
85133;SDS011;75495;42.690;23.354;2024-01-06T07:45:55;14.75;;;6.35;;
85133;SDS011;75495;42.690;23.354;2024-01-06T07:48:21;12.00;;;7.30;;
85133;SDS011;75495;42.690;23.354;2024-01-06T07:50:47;17.38;;;7.72;;
85133;SDS011;75495;42.690;23.354;2024-01-06T07:53:12;20.10;;;10.98;;
85133;SDS011;75495;42.690;23.354;2024-01-06T07:55:39;16.30;;;8.90;;
85133;SDS011;75495;42.690;23.354;2024-01-06T07:58:06;15.38;;;8.80;;
85133;SDS011;75495;42.690;23.354;2024-01-06T08:00:31;16.42;;;8.18;;
85133;SDS011;75495;42.690;23.354;2024-01-06T08:02:57;21.55;;;10.32;;
85133;SDS011;75495;42.690;23.354;2024-01-06T08:05:22;20.58;;;11.35;;
85133;SDS011;75495;42.690;23.354;2024-01-06T08:07:49;15.13;;;9.00;;
85133;SDS011;75495;42.690;23.354;2024-01-06T08:10:14;29.33;;;18.15;;
85133;SDS011;75495;42.690;23.354;2024-01-06T08:12:40;25.83;;;13.73;;
85133;SDS011;75495;42.690;23.354;2024-01-06T08:15:05;21.67;;;13.20;;
85133;SDS011;75495;42.690;23.354;2024-01-06T08:17:32;32.15;;;15.60;;
85133;SDS011;75495;42.690;23.354;2024-01-06T08:19:58;30.10;;;15.68;;
85133;SDS011;75495;42.690;23.354;2024-01-06T08:22:23;35.88;;;19.42;;
85133;SDS011;75495;42.690;23.354;2024-01-06T08:24:49;33.80;;;20.08;;
85133;SDS011;75495;42.690;23.354;2024-01-06T08:27:14;40.83;;;24.55;;
85133;SDS011;75495;42.690;23.354;2024-01-06T08:29:40;46.67;;;25.25;;
85133;SDS011;75495;42.690;23.354;2024-01-06T08:32:05;45.22;;;26.27;;
85133;SDS011;75495;42.690;23.354;2024-01-06T08:34:31;37.90;;;23.17;;
85133;SDS011;75495;42.690;23.354;2024-01-06T08:36:58;37.05;;;23.10;;
85133;SDS011;75495;42.690;23.354;2024-01-06T08:39:24;45.05;;;28.58;;
85133;SDS011;75495;42.690;23.354;2024-01-06T08:41:50;42.75;;;26.05;;
85133;SDS011;75495;42.690;23.354;2024-01-06T08:44:15;40.38;;;24.50;;
85133;SDS011;75495;42.690;23.354;2024-01-06T08:46:42;38.22;;;23.48;;
85133;SDS011;75495;42.690;23.354;2024-01-06T08:49:08;42.00;;;25.20;;
85133;SDS011;75495;42.690;23.354;2024-01-06T08:51:33;43.47;;;23.80;;
85133;SDS011;75495;42.690;23.354;2024-01-06T08:54:00;38.40;;;23.00;;
85133;SDS011;75495;42.690;23.354;2024-01-06T08:56:28;37.63;;;23.00;;
85133;SDS011;75495;42.690;23.354;2024-01-06T08:58:54;33.42;;;20.63;;
85133;SDS011;75495;42.690;23.354;2024-01-06T09:01:19;30.85;;;19.80;;
85133;SDS011;75495;42.690;23.354;2024-01-06T09:03:45;31.55;;;19.55;;
85133;SDS011;75495;42.690;23.354;2024-01-06T09:06:11;21.55;;;13.45;;
85133;SDS011;75495;42.690;23.354;2024-01-06T09:08:37;27.50;;;15.20;;
85133;SDS011;75495;42.690;23.354;2024-01-06T09:11:02;19.58;;;13.25;;
85133;SDS011;75495;42.690;23.354;2024-01-06T09:13:28;20.80;;;13.27;;
85133;SDS011;75495;42.690;23.354;2024-01-06T09:15:53;34.17;;;18.75;;
85133;SDS011;75495;42.690;23.354;2024-01-06T09:18:19;20.17;;;12.82;;
85133;SDS011;75495;42.690;23.354;2024-01-06T09:20:44;17.48;;;11.15;;
85133;SDS011;75495;42.690;23.354;2024-01-06T09:23:12;18.35;;;12.70;;
85133;SDS011;75495;42.690;23.354;2024-01-06T09:25:38;20.80;;;14.02;;
85133;SDS011;75495;42.690;23.354;2024-01-06T09:28:05;25.38;;;15.90;;
85133;SDS011;75495;42.690;23.354;2024-01-06T09:30:31;24.38;;;13.40;;
85133;SDS011;75495;42.690;23.354;2024-01-06T09:32:56;25.25;;;14.63;;
85133;SDS011;75495;42.690;23.354;2024-01-06T09:35:21;17.33;;;12.13;;
85133;SDS011;75495;42.690;23.354;2024-01-06T09:37:49;23.48;;;13.55;;
85133;SDS011;75495;42.690;23.354;2024-01-06T09:40:14;29.98;;;15.02;;
85133;SDS011;75495;42.690;23.354;2024-01-06T09:42:46;25.73;;;14.95;;
85133;SDS011;75495;42.690;23.354;2024-01-06T09:45:12;31.85;;;17.30;;
85133;SDS011;75495;42.690;23.354;2024-01-06T09:47:37;26.33;;;13.48;;
85133;SDS011;75495;42.690;23.354;2024-01-06T09:50:08;25.15;;;13.68;;
85133;SDS011;75495;42.690;23.354;2024-01-06T09:52:39;27.35;;;15.80;;
85133;SDS011;75495;42.690;23.354;2024-01-06T09:55:09;28.27;;;14.55;;
85133;SDS011;75495;42.690;23.354;2024-01-06T09:57:36;23.55;;;12.93;;
85133;SDS011;75495;42.690;23.354;2024-01-06T10:00:02;23.17;;;12.63;;
85133;SDS011;75495;42.690;23.354;2024-01-06T10:02:29;25.10;;;12.35;;
85133;SDS011;75495;42.690;23.354;2024-01-06T10:04:57;22.55;;;12.07;;
85133;SDS011;75495;42.690;23.354;2024-01-06T10:07:23;25.15;;;15.32;;
85133;SDS011;75495;42.690;23.354;2024-01-06T10:09:54;17.40;;;9.20;;
85133;SDS011;75495;42.690;23.354;2024-01-06T10:12:22;24.73;;;13.60;;
85133;SDS011;75495;42.690;23.354;2024-01-06T10:14:50;22.83;;;13.60;;
85133;SDS011;75495;42.690;23.354;2024-01-06T10:17:15;21.65;;;10.20;;
85133;SDS011;75495;42.690;23.354;2024-01-06T10:19:41;22.38;;;11.80;;
85133;SDS011;75495;42.690;23.354;2024-01-06T10:22:10;26.75;;;14.10;;
85133;SDS011;75495;42.690;23.354;2024-01-06T10:24:38;22.85;;;12.85;;
85133;SDS011;75495;42.690;23.354;2024-01-06T10:27:04;24.65;;;12.00;;
85133;SDS011;75495;42.690;23.354;2024-01-06T10:29:30;31.50;;;16.00;;
85133;SDS011;75495;42.690;23.354;2024-01-06T10:31:58;26.20;;;14.73;;
85133;SDS011;75495;42.690;23.354;2024-01-06T10:34:24;27.83;;;15.60;;
85133;SDS011;75495;42.690;23.354;2024-01-06T10:36:50;26.42;;;13.65;;
85133;SDS011;75495;42.690;23.354;2024-01-06T10:39:19;29.98;;;15.70;;
85133;SDS011;75495;42.690;23.354;2024-01-06T10:41:46;24.55;;;13.45;;
85133;SDS011;75495;42.690;23.354;2024-01-06T10:44:13;22.33;;;12.23;;
85133;SDS011;75495;42.690;23.354;2024-01-06T10:46:40;21.75;;;13.50;;
85133;SDS011;75495;42.690;23.354;2024-01-06T10:49:06;21.88;;;14.57;;
85133;SDS011;75495;42.690;23.354;2024-01-06T10:51:38;26.27;;;13.65;;
85133;SDS011;75495;42.690;23.354;2024-01-06T10:54:04;23.88;;;14.45;;
85133;SDS011;75495;42.690;23.354;2024-01-06T10:56:36;28.15;;;15.70;;
85133;SDS011;75495;42.690;23.354;2024-01-06T10:59:03;28.65;;;16.58;;
85133;SDS011;75495;42.690;23.354;2024-01-06T11:01:29;28.48;;;15.98;;
85133;SDS011;75495;42.690;23.354;2024-01-06T11:03:55;32.53;;;17.05;;
85133;SDS011;75495;42.690;23.354;2024-01-06T11:06:21;32.38;;;17.83;;
85133;SDS011;75495;42.690;23.354;2024-01-06T11:09:21;38.83;;;17.70;;
85133;SDS011;75495;42.690;23.354;2024-01-06T11:11:45;32.05;;;18.00;;
85133;SDS011;75495;42.690;23.354;2024-01-06T11:14:23;31.42;;;18.10;;
85133;SDS011;75495;42.690;23.354;2024-01-06T11:16:51;36.50;;;22.88;;
85133;SDS011;75495;42.690;23.354;2024-01-06T11:24:51;38.70;;;25.45;;
85133;SDS011;75495;42.690;23.354;2024-01-06T11:27:27;39.83;;;25.65;;
85133;SDS011;75495;42.690;23.354;2024-01-06T11:29:57;34.55;;;24.60;;
85133;SDS011;75495;42.690;23.354;2024-01-06T11:32:35;36.55;;;23.77;;
85133;SDS011;75495;42.690;23.354;2024-01-06T11:35:07;27.63;;;17.52;;
85133;SDS011;75495;42.690;23.354;2024-01-06T11:40:07;27.95;;;16.98;;
85133;SDS011;75495;42.690;23.354;2024-01-06T11:42:34;25.85;;;14.52;;
85133;SDS011;75495;42.690;23.354;2024-01-06T11:45:05;26.55;;;15.05;;
85133;SDS011;75495;42.690;23.354;2024-01-06T11:47:32;19.80;;;13.20;;
85133;SDS011;75495;42.690;23.354;2024-01-06T11:49:58;24.10;;;13.00;;
85133;SDS011;75495;42.690;23.354;2024-01-06T11:52:27;23.52;;;14.20;;
85133;SDS011;75495;42.690;23.354;2024-01-06T11:54:53;20.75;;;11.40;;
85133;SDS011;75495;42.690;23.354;2024-01-06T11:57:19;27.67;;;14.40;;
85133;SDS011;75495;42.690;23.354;2024-01-06T11:59:45;21.73;;;13.27;;
85133;SDS011;75495;42.690;23.354;2024-01-06T12:02:11;21.52;;;12.25;;
85133;SDS011;75495;42.690;23.354;2024-01-06T12:04:40;24.95;;;12.88;;
85133;SDS011;75495;42.690;23.354;2024-01-06T12:07:08;20.73;;;12.88;;
85133;SDS011;75495;42.690;23.354;2024-01-06T12:09:34;21.63;;;11.48;;
85133;SDS011;75495;42.690;23.354;2024-01-06T12:12:01;24.38;;;11.60;;
85133;SDS011;75495;42.690;23.354;2024-01-06T12:14:29;17.80;;;10.07;;
85133;SDS011;75495;42.690;23.354;2024-01-06T12:16:54;18.17;;;9.23;;
85133;SDS011;75495;42.690;23.354;2024-01-06T12:21:48;12.18;;;7.70;;
85133;SDS011;75495;42.690;23.354;2024-01-06T12:24:18;13.23;;;8.13;;
85133;SDS011;75495;42.690;23.354;2024-01-06T12:26:46;11.10;;;7.45;;
85133;SDS011;75495;42.690;23.354;2024-01-06T12:29:13;21.48;;;12.35;;
85133;SDS011;75495;42.690;23.354;2024-01-06T12:31:39;21.70;;;11.77;;
85133;SDS011;75495;42.690;23.354;2024-01-06T12:34:06;14.30;;;8.98;;
85133;SDS011;75495;42.690;23.354;2024-01-06T12:36:35;12.65;;;7.32;;
85133;SDS011;75495;42.690;23.354;2024-01-06T12:39:05;12.10;;;7.50;;
85133;SDS011;75495;42.690;23.354;2024-01-06T12:41:31;12.93;;;9.00;;
85133;SDS011;75495;42.690;23.354;2024-01-06T12:44:00;13.40;;;8.48;;
85133;SDS011;75495;42.690;23.354;2024-01-06T12:46:26;11.15;;;6.75;;
85133;SDS011;75495;42.690;23.354;2024-01-06T12:48:52;11.32;;;7.32;;
85133;SDS011;75495;42.690;23.354;2024-01-06T12:51:18;11.60;;;6.90;;
85133;SDS011;75495;42.690;23.354;2024-01-06T12:53:43;11.57;;;7.03;;
85133;SDS011;75495;42.690;23.354;2024-01-06T12:56:09;18.15;;;8.77;;
85133;SDS011;75495;42.690;23.354;2024-01-06T12:58:35;12.85;;;8.10;;
85133;SDS011;75495;42.690;23.354;2024-01-06T13:01:00;10.88;;;6.10;;
85133;SDS011;75495;42.690;23.354;2024-01-06T13:03:27;13.32;;;7.50;;
85133;SDS011;75495;42.690;23.354;2024-01-06T13:05:54;15.02;;;7.13;;
85133;SDS011;75495;42.690;23.354;2024-01-06T13:08:19;12.55;;;6.50;;
85133;SDS011;75495;42.690;23.354;2024-01-06T13:10:46;10.07;;;6.22;;
85133;SDS011;75495;42.690;23.354;2024-01-06T13:13:12;11.45;;;5.72;;
85133;SDS011;75495;42.690;23.354;2024-01-06T13:15:37;11.05;;;5.72;;
85133;SDS011;75495;42.690;23.354;2024-01-06T13:18:04;11.07;;;6.47;;
85133;SDS011;75495;42.690;23.354;2024-01-06T13:20:30;9.90;;;7.45;;
85133;SDS011;75495;42.690;23.354;2024-01-06T13:22:57;8.82;;;6.35;;
85133;SDS011;75495;42.690;23.354;2024-01-06T13:25:22;11.18;;;6.13;;
85133;SDS011;75495;42.690;23.354;2024-01-06T13:27:48;10.82;;;6.30;;
85133;SDS011;75495;42.690;23.354;2024-01-06T13:30:15;8.77;;;6.40;;
85133;SDS011;75495;42.690;23.354;2024-01-06T13:32:40;11.75;;;6.65;;
85133;SDS011;75495;42.690;23.354;2024-01-06T13:35:06;8.40;;;6.10;;
85133;SDS011;75495;42.690;23.354;2024-01-06T13:37:36;10.90;;;5.55;;
85133;SDS011;75495;42.690;23.354;2024-01-06T13:40:02;9.57;;;5.32;;
85133;SDS011;75495;42.690;23.354;2024-01-06T13:42:32;11.25;;;6.32;;
85133;SDS011;75495;42.690;23.354;2024-01-06T13:44:58;8.25;;;5.00;;
85133;SDS011;75495;42.690;23.354;2024-01-06T13:47:25;8.50;;;5.40;;
85133;SDS011;75495;42.690;23.354;2024-01-06T13:49:51;9.27;;;5.38;;
85133;SDS011;75495;42.690;23.354;2024-01-06T13:52:16;11.18;;;5.82;;
85133;SDS011;75495;42.690;23.354;2024-01-06T13:54:41;12.13;;;5.90;;
85133;SDS011;75495;42.690;23.354;2024-01-06T13:57:07;9.57;;;6.65;;
85133;SDS011;75495;42.690;23.354;2024-01-06T13:59:32;11.77;;;8.02;;
85133;SDS011;75495;42.690;23.354;2024-01-06T14:02:01;11.05;;;6.38;;
85133;SDS011;75495;42.690;23.354;2024-01-06T14:04:27;16.90;;;8.90;;
85133;SDS011;75495;42.690;23.354;2024-01-06T14:06:52;14.77;;;8.05;;
85133;SDS011;75495;42.690;23.354;2024-01-06T14:09:21;16.40;;;8.13;;
85133;SDS011;75495;42.690;23.354;2024-01-06T14:11:46;17.10;;;10.52;;
85133;SDS011;75495;42.690;23.354;2024-01-06T14:14:12;17.17;;;10.57;;
85133;SDS011;75495;42.690;23.354;2024-01-06T14:16:38;13.27;;;9.07;;
85133;SDS011;75495;42.690;23.354;2024-01-06T14:19:03;12.90;;;8.90;;